createdAt,value
2023-04-22T00:00:26.861Z,10.52
2023-04-22T00:02:56.181Z,10.57
2023-04-22T00:05:25.964Z,10.93
2023-04-22T00:07:54.234Z,9.52
2023-04-22T00:10:22.328Z,9.80
2023-04-22T00:12:50.478Z,10.27
2023-04-22T00:15:21.616Z,9.30
2023-04-22T00:17:50.429Z,9.30
2023-04-22T00:20:21.512Z,8.27
2023-04-22T00:22:50.983Z,8.20
2023-04-22T00:25:19.397Z,7.18
2023-04-22T00:27:47.850Z,8.07
2023-04-22T00:30:16.782Z,8.02
2023-04-22T00:32:45.018Z,9.25
2023-04-22T00:35:13.111Z,9.75
2023-04-22T00:37:41.309Z,9.85
2023-04-22T00:40:11.937Z,10.23
2023-04-22T00:42:40.655Z,10.48
2023-04-22T00:45:12.719Z,14.55
2023-04-22T00:47:41.193Z,11.75
2023-04-22T00:50:10.573Z,11.50
2023-04-22T00:52:38.743Z,9.93
2023-04-22T00:55:07.551Z,10.90
2023-04-22T00:57:37.285Z,19.27
2023-04-22T01:00:06.545Z,19.73
2023-04-22T01:02:36.006Z,12.85
2023-04-22T01:05:04.585Z,10.50
2023-04-22T01:07:32.764Z,9.50
2023-04-22T01:10:01.441Z,9.60
2023-04-22T01:12:29.534Z,10.10
2023-04-22T01:14:59.088Z,14.82
2023-04-22T01:17:27.317Z,15.00
2023-04-22T01:19:55.628Z,14.77
2023-04-22T01:22:26.126Z,11.90
2023-04-22T01:24:56.208Z,11.60
2023-04-22T01:27:24.703Z,9.77
2023-04-22T01:29:53.080Z,9.90
2023-04-22T01:32:21.348Z,10.52
2023-04-22T01:34:49.691Z,10.52
2023-04-22T01:37:18.660Z,10.90
2023-04-22T01:39:48.691Z,10.30
2023-04-22T01:42:21.149Z,8.95
2023-04-22T01:44:52.841Z,9.00
2023-04-22T01:47:20.953Z,8.75
2023-04-22T01:49:49.051Z,9.20
2023-04-22T01:52:17.551Z,8.13
2023-04-22T01:54:45.655Z,8.20
2023-04-22T01:57:16.316Z,8.25
2023-04-22T01:59:45.796Z,8.40
2023-04-22T02:05:09.019Z,12.35
2023-04-22T02:07:37.597Z,10.57
2023-04-22T02:10:07.699Z,8.90
2023-04-22T02:12:36.167Z,9.65
2023-04-22T13:16:03.532Z,1.40
2023-04-22T13:18:33.446Z,2.40
2023-04-22T13:21:13.692Z,1.42
2023-04-22T13:23:41.989Z,1.30
2023-04-22T13:29:56.805Z,1.45
2023-04-22T13:32:24.940Z,1.25
2023-04-22T13:34:54.483Z,1.55
2023-04-22T13:37:23.092Z,3.83
2023-04-22T13:39:51.165Z,4.15
2023-04-22T13:42:19.449Z,5.65
2023-04-22T13:44:47.617Z,5.85
2023-04-22T13:47:15.811Z,6.40
2023-04-22T13:49:45.040Z,3.10
2023-04-22T13:52:14.536Z,2.65
2023-04-22T13:54:42.652Z,2.15
2023-04-22T13:57:10.729Z,1.30
2023-04-22T13:59:38.983Z,1.13
2023-04-22T14:02:07.311Z,1.65
2023-04-22T14:04:35.465Z,1.20
2023-04-22T14:07:04.132Z,1.10
2023-04-22T14:09:34.559Z,0.93
2023-04-22T14:12:03.186Z,1.10
2023-04-22T14:14:31.309Z,0.98
2023-04-22T14:17:00.395Z,1.10
2023-04-22T14:19:30.198Z,1.23
2023-04-22T14:21:58.461Z,1.33
2023-04-22T14:24:26.825Z,1.00
2023-04-22T14:26:59.593Z,1.33
2023-04-22T14:29:29.754Z,1.13
2023-04-22T14:31:57.982Z,1.30
2023-04-22T14:34:26.942Z,1.48
2023-04-22T14:36:55.287Z,1.35
2023-04-22T14:39:23.474Z,0.90
2023-04-22T14:41:51.611Z,1.45
2023-04-22T14:44:21.297Z,1.17
2023-04-22T14:46:49.563Z,0.98
2023-04-22T14:49:17.928Z,1.17
2023-04-22T14:51:46.052Z,1.15
2023-04-22T14:54:14.211Z,1.15
2023-04-22T14:56:42.316Z,1.30
2023-04-22T14:59:10.454Z,1.15
2023-04-22T15:01:41.853Z,1.33
2023-04-22T15:04:12.764Z,1.73
2023-04-22T15:06:41.115Z,1.42
2023-04-22T15:09:09.246Z,1.35
2023-04-22T15:11:37.305Z,1.50
2023-04-22T15:14:05.482Z,1.38
2023-04-22T15:16:33.693Z,1.70
2023-04-22T15:19:03.300Z,1.40
2023-04-22T15:21:31.997Z,1.55
2023-04-22T15:24:00.120Z,1.77
2023-04-22T15:26:28.311Z,1.20
2023-04-22T15:28:56.406Z,1.30
2023-04-22T15:31:24.567Z,1.40
2023-04-22T15:33:52.673Z,1.20
2023-04-22T15:36:22.231Z,1.35
2023-04-22T15:38:56.476Z,1.10
2023-04-22T15:41:27.831Z,1.20
2023-04-22T15:43:55.992Z,1.17
2023-04-22T15:46:24.422Z,1.30
2023-04-22T15:48:52.630Z,1.20
2023-04-22T15:51:22.853Z,1.55
2023-04-22T15:53:51.054Z,1.20
2023-04-22T15:56:19.416Z,1.10
2023-04-22T15:58:47.582Z,1.33
2023-04-22T16:01:19.277Z,2.03
2023-04-22T16:03:48.771Z,1.80
2023-04-22T16:06:17.559Z,2.08
2023-04-22T16:08:47.431Z,1.70
2023-04-22T16:11:16.303Z,1.20
2023-04-22T16:13:44.569Z,1.08
2023-04-22T16:16:12.695Z,1.50
2023-04-22T16:18:44.070Z,1.50
2023-04-22T16:21:12.528Z,1.50
2023-04-22T16:23:40.772Z,1.30
2023-04-22T16:26:10.759Z,13.43
2023-04-22T16:28:38.884Z,4.32
2023-04-22T16:31:08.925Z,9.18
2023-04-22T16:33:37.840Z,3.50
2023-04-22T16:36:08.601Z,2.22
2023-04-22T16:38:36.671Z,2.97
2023-04-22T16:41:04.949Z,4.32
2023-04-22T16:43:34.433Z,3.28
2023-04-22T16:46:03.712Z,5.30
2023-04-22T16:48:32.147Z,3.13
2023-04-22T16:51:00.287Z,100.55
2023-04-22T16:53:28.487Z,31.92
2023-04-22T16:55:56.862Z,21.85
2023-04-22T16:58:25.117Z,15.18
2023-04-22T17:00:54.629Z,4.90
2023-04-22T17:03:22.910Z,23.08
2023-04-22T17:05:51.115Z,24.02
2023-04-22T17:08:19.597Z,24.70
2023-04-22T17:10:48.498Z,18.27
2023-04-22T17:13:16.966Z,23.58
2023-04-22T17:15:45.175Z,4.93
2023-04-22T17:18:16.270Z,7.72
2023-04-22T17:20:44.598Z,2.10
2023-04-22T17:23:12.730Z,1.55
2023-04-22T17:25:40.828Z,2.35
2023-04-22T17:28:11.014Z,1.42
2023-04-22T17:30:39.525Z,1.75
2023-04-22T17:33:07.721Z,1.77
2023-04-22T17:35:37.175Z,1.63
2023-04-22T17:38:05.254Z,1.45
2023-04-22T17:40:33.366Z,1.42
2023-04-22T17:43:01.443Z,1.40
2023-04-22T17:45:29.628Z,1.40
2023-04-22T17:47:57.771Z,1.60
2023-04-22T17:50:26.227Z,1.33
2023-04-22T17:52:55.834Z,1.05
2023-04-22T17:55:24.145Z,1.40
2023-04-22T17:57:52.244Z,1.48
2023-04-22T18:00:20.591Z,1.50
2023-04-22T18:02:48.963Z,1.58
2023-04-22T18:05:17.221Z,1.40
2023-04-22T18:07:45.321Z,1.10
2023-04-22T18:10:15.053Z,1.30
2023-04-22T18:12:43.309Z,1.35
2023-04-22T18:15:12.138Z,1.30
2023-04-22T18:17:40.259Z,2.70
2023-04-22T18:20:17.506Z,2.10
2023-04-22T18:22:48.002Z,1.33
2023-04-22T18:25:17.507Z,1.70
2023-04-22T18:27:45.610Z,2.20
2023-04-22T18:30:14.129Z,1.40
2023-04-22T18:32:42.253Z,1.58
2023-04-22T18:35:11.108Z,1.10
2023-04-22T18:37:39.250Z,1.30
2023-04-22T18:40:08.924Z,1.88
2023-04-22T18:42:38.878Z,1.48
2023-04-22T18:45:08.645Z,1.15
2023-04-22T18:47:36.756Z,1.20
2023-04-22T18:50:05.264Z,1.35
2023-04-22T18:52:34.069Z,1.20
2023-04-22T18:55:02.256Z,1.60
2023-04-22T18:57:30.619Z,1.30
2023-04-22T19:00:00.073Z,1.60
2023-04-22T19:02:28.402Z,1.15
2023-04-22T19:04:56.563Z,1.33
2023-04-22T19:07:25.053Z,1.40
2023-04-22T19:09:53.145Z,1.30
2023-04-22T19:12:21.277Z,1.42
2023-04-22T19:14:49.360Z,1.10
2023-04-22T19:17:18.845Z,1.23
2023-04-22T19:19:46.942Z,1.20
2023-04-22T19:22:16.198Z,1.20
2023-04-22T19:24:44.411Z,1.25
2023-04-22T19:27:13.174Z,1.38
2023-04-22T19:29:41.977Z,1.40
2023-04-22T19:32:11.007Z,1.23
2023-04-22T19:34:40.592Z,1.40
2023-04-22T19:37:08.727Z,1.40
2023-04-22T19:39:36.881Z,1.33
2023-04-22T19:42:05.282Z,73.18
2023-04-22T19:44:33.575Z,63.88
2023-04-22T19:47:01.976Z,36.05
2023-04-22T19:49:32.506Z,30.77
2023-04-22T19:52:03.418Z,56.08
2023-04-22T19:54:31.866Z,38.60
2023-04-22T19:57:00.126Z,40.67
2023-04-22T19:59:31.658Z,19.83
2023-04-22T20:02:00.660Z,6.93
2023-04-22T20:04:29.565Z,3.13
2023-04-22T20:07:01.421Z,8.52
2023-04-22T20:09:33.847Z,30.02
2023-04-22T20:12:02.948Z,16.40
2023-04-22T20:14:31.896Z,11.73
2023-04-22T20:17:00.370Z,4.43
2023-04-22T20:19:30.497Z,2.22
2023-04-22T20:22:01.255Z,1.50
2023-04-22T20:24:32.775Z,1.20
2023-04-22T20:27:02.345Z,1.42
2023-04-22T20:29:31.190Z,1.30
2023-04-22T20:31:59.700Z,1.20
2023-04-22T20:34:28.472Z,1.25
2023-04-22T20:36:56.759Z,1.50
2023-04-22T20:39:25.669Z,1.40
2023-04-22T20:41:56.342Z,1.30
2023-04-22T20:44:26.133Z,0.98
2023-04-22T20:46:55.662Z,1.35
2023-04-22T20:49:23.756Z,1.42
2023-04-22T20:51:52.987Z,1.52
2023-04-22T20:54:28.575Z,1.42
2023-04-22T20:56:57.793Z,1.38
2023-04-22T20:59:27.405Z,1.95
2023-04-22T21:01:56.413Z,1.55
2023-04-22T21:04:25.610Z,1.48
2023-04-22T21:06:54.638Z,1.58
2023-04-22T21:09:25.861Z,2.00
2023-04-22T21:11:54.700Z,1.58
2023-04-22T21:14:26.210Z,1.88
2023-04-22T21:17:01.798Z,2.10
2023-04-22T21:19:33.200Z,1.90
2023-04-22T21:22:06.122Z,2.33
2023-04-22T21:24:34.994Z,2.00
2023-04-22T21:27:31.240Z,1.90
2023-04-22T21:29:59.992Z,2.08
2023-04-22T21:32:29.538Z,1.80
2023-04-22T21:34:57.755Z,1.80
2023-04-22T21:37:26.013Z,2.08
2023-04-22T21:39:54.325Z,1.70
2023-04-22T21:42:22.464Z,1.73
2023-04-22T21:44:50.575Z,1.77
2023-04-22T21:47:18.726Z,1.85
2023-04-22T21:49:48.165Z,1.92
2023-04-22T21:52:16.327Z,1.77
2023-04-22T21:54:45.177Z,1.65
2023-04-22T21:57:13.824Z,1.33
2023-04-22T21:59:42.248Z,1.38
2023-04-22T22:02:10.756Z,1.52
2023-04-22T22:04:39.034Z,1.40
2023-04-22T22:07:08.767Z,1.73
2023-04-22T22:09:36.884Z,1.38
2023-04-22T22:12:05.378Z,1.42
2023-04-22T22:14:33.717Z,1.40
2023-04-22T22:17:02.108Z,1.25
2023-04-22T22:19:30.751Z,1.23
2023-04-22T22:21:58.929Z,1.58
2023-04-22T22:24:28.468Z,1.45
2023-04-22T22:26:57.983Z,1.50
2023-04-22T22:29:26.096Z,1.52
2023-04-22T22:31:54.200Z,1.83
2023-04-22T22:34:22.298Z,1.25
2023-04-22T22:36:50.401Z,1.60
2023-04-22T22:39:18.515Z,1.58
2023-04-22T22:41:47.978Z,1.92
2023-04-22T22:44:16.316Z,1.90
2023-04-22T22:46:44.459Z,1.80
2023-04-22T22:49:12.541Z,1.77
2023-04-22T22:51:40.631Z,1.50
2023-04-22T22:54:08.795Z,1.85
2023-04-22T22:56:37.027Z,2.00
2023-04-22T22:59:06.513Z,1.95
2023-04-22T23:01:34.826Z,1.70
2023-04-22T23:04:03.366Z,1.50
2023-04-22T23:06:31.947Z,1.75
2023-04-22T23:09:00.049Z,2.17
2023-04-22T23:11:28.119Z,1.85
2023-04-22T23:13:56.315Z,2.10
2023-04-22T23:16:27.097Z,2.15
2023-04-22T23:18:56.854Z,2.55
2023-04-22T23:21:25.306Z,2.08
2023-04-22T23:23:53.804Z,2.13
2023-04-22T23:26:22.297Z,2.38
2023-04-22T23:28:50.853Z,2.33
2023-04-22T23:31:20.451Z,2.40
2023-04-22T23:33:51.768Z,2.58
2023-04-22T23:36:21.091Z,2.63
2023-04-22T23:38:49.190Z,2.35
2023-04-22T23:41:17.298Z,2.60
2023-04-22T23:43:45.382Z,2.95
2023-04-22T23:46:14.939Z,2.58
2023-04-22T23:48:44.148Z,3.33
2023-04-22T23:51:16.337Z,3.17
2023-04-22T23:53:44.866Z,2.88
2023-04-22T23:56:14.079Z,2.95
2023-04-22T23:58:42.785Z,3.42
